sensor_id;sensor_type;location;lat;lon;timestamp;P1;durP1;ratioP1;P2;durP2;ratioP2
16998;SDS011;10211;49.476;11.010;2023-01-30T00:01:21;19.30;;;10.93;;
16998;SDS011;10211;49.476;11.010;2023-01-30T00:03:50;16.50;;;10.70;;
16998;SDS011;10211;49.476;11.010;2023-01-30T00:06:17;17.40;;;10.53;;
16998;SDS011;10211;49.476;11.010;2023-01-30T00:08:44;17.93;;;10.67;;
16998;SDS011;10211;49.476;11.010;2023-01-30T00:11:13;18.40;;;11.20;;
16998;SDS011;10211;49.476;11.010;2023-01-30T00:13:41;20.93;;;12.13;;
16998;SDS011;10211;49.476;11.010;2023-01-30T00:16:09;17.30;;;10.90;;
16998;SDS011;10211;49.476;11.010;2023-01-30T00:18:36;15.17;;;9.93;;
16998;SDS011;10211;49.476;11.010;2023-01-30T00:21:04;17.03;;;10.93;;
16998;SDS011;10211;49.476;11.010;2023-01-30T00:23:33;22.00;;;11.13;;
16998;SDS011;10211;49.476;11.010;2023-01-30T00:26:01;17.90;;;11.30;;
16998;SDS011;10211;49.476;11.010;2023-01-30T00:28:28;16.53;;;10.63;;
16998;SDS011;10211;49.476;11.010;2023-01-30T00:30:55;16.10;;;10.30;;
16998;SDS011;10211;49.476;11.010;2023-01-30T00:33:24;18.57;;;10.63;;
16998;SDS011;10211;49.476;11.010;2023-01-30T00:35:52;16.43;;;10.67;;
16998;SDS011;10211;49.476;11.010;2023-01-30T00:38:20;20.73;;;11.33;;
16998;SDS011;10211;49.476;11.010;2023-01-30T00:40:48;19.77;;;11.07;;
16998;SDS011;10211;49.476;11.010;2023-01-30T00:43:15;23.93;;;11.33;;
16998;SDS011;10211;49.476;11.010;2023-01-30T00:46:02;16.67;;;10.37;;
16998;SDS011;10211;49.476;11.010;2023-01-30T00:49:05;18.33;;;11.17;;
16998;SDS011;10211;49.476;11.010;2023-01-30T00:51:31;21.27;;;11.70;;
16998;SDS011;10211;49.476;11.010;2023-01-30T00:53:58;17.47;;;10.30;;
16998;SDS011;10211;49.476;11.010;2023-01-30T00:56:25;17.07;;;11.50;;
16998;SDS011;10211;49.476;11.010;2023-01-30T00:58:52;18.13;;;10.43;;
16998;SDS011;10211;49.476;11.010;2023-01-30T01:01:18;21.37;;;11.73;;
16998;SDS011;10211;49.476;11.010;2023-01-30T01:03:45;27.20;;;14.37;;
16998;SDS011;10211;49.476;11.010;2023-01-30T01:06:13;25.23;;;13.77;;
16998;SDS011;10211;49.476;11.010;2023-01-30T01:08:40;34.40;;;14.77;;
16998;SDS011;10211;49.476;11.010;2023-01-30T01:11:07;24.53;;;13.13;;
16998;SDS011;10211;49.476;11.010;2023-01-30T01:13:33;23.43;;;12.80;;
16998;SDS011;10211;49.476;11.010;2023-01-30T01:16:01;22.93;;;12.70;;
16998;SDS011;10211;49.476;11.010;2023-01-30T01:18:27;20.80;;;12.20;;
16998;SDS011;10211;49.476;11.010;2023-01-30T01:20:54;27.00;;;14.10;;
16998;SDS011;10211;49.476;11.010;2023-01-30T01:23:22;21.33;;;12.37;;
16998;SDS011;10211;49.476;11.010;2023-01-30T01:25:49;22.20;;;12.57;;
16998;SDS011;10211;49.476;11.010;2023-01-30T01:28:15;20.77;;;13.07;;
16998;SDS011;10211;49.476;11.010;2023-01-30T01:30:46;21.67;;;12.90;;
16998;SDS011;10211;49.476;11.010;2023-01-30T01:33:13;23.80;;;14.23;;
16998;SDS011;10211;49.476;11.010;2023-01-30T01:35:39;23.97;;;12.90;;
16998;SDS011;10211;49.476;11.010;2023-01-30T01:38:06;23.07;;;13.03;;
16998;SDS011;10211;49.476;11.010;2023-01-30T01:40:34;26.13;;;12.57;;
16998;SDS011;10211;49.476;11.010;2023-01-30T01:43:20;24.90;;;14.10;;
16998;SDS011;10211;49.476;11.010;2023-01-30T01:45:48;21.70;;;14.10;;
16998;SDS011;10211;49.476;11.010;2023-01-30T01:48:19;22.67;;;12.87;;
16998;SDS011;10211;49.476;11.010;2023-01-30T01:50:53;24.87;;;13.70;;
16998;SDS011;10211;49.476;11.010;2023-01-30T01:53:25;16.97;;;11.13;;
16998;SDS011;10211;49.476;11.010;2023-01-30T01:55:57;21.37;;;13.03;;
16998;SDS011;10211;49.476;11.010;2023-01-30T01:58:26;20.83;;;12.23;;
16998;SDS011;10211;49.476;11.010;2023-01-30T02:00:57;21.13;;;12.00;;
16998;SDS011;10211;49.476;11.010;2023-01-30T02:03:25;17.80;;;10.80;;
16998;SDS011;10211;49.476;11.010;2023-01-30T02:05:54;17.33;;;11.87;;
16998;SDS011;10211;49.476;11.010;2023-01-30T02:08:26;19.50;;;11.47;;
16998;SDS011;10211;49.476;11.010;2023-01-30T02:10:58;19.80;;;11.67;;
16998;SDS011;10211;49.476;11.010;2023-01-30T02:13:30;16.13;;;10.90;;
16998;SDS011;10211;49.476;11.010;2023-01-30T02:15:57;20.47;;;10.73;;
16998;SDS011;10211;49.476;11.010;2023-01-30T02:18:26;18.97;;;11.23;;
16998;SDS011;10211;49.476;11.010;2023-01-30T02:20:56;15.63;;;9.87;;
16998;SDS011;10211;49.476;11.010;2023-01-30T02:23:55;15.50;;;10.23;;
16998;SDS011;10211;49.476;11.010;2023-01-30T02:29:59;19.10;;;10.40;;
16998;SDS011;10211;49.476;11.010;2023-01-30T02:32:48;17.00;;;10.40;;
16998;SDS011;10211;49.476;11.010;2023-01-30T02:35:27;18.07;;;10.17;;
16998;SDS011;10211;49.476;11.010;2023-01-30T02:38:05;17.07;;;10.83;;
16998;SDS011;10211;49.476;11.010;2023-01-30T02:40:47;15.10;;;10.70;;
16998;SDS011;10211;49.476;11.010;2023-01-30T02:43:23;14.63;;;10.33;;
16998;SDS011;10211;49.476;11.010;2023-01-30T02:45:59;14.43;;;9.80;;
16998;SDS011;10211;49.476;11.010;2023-01-30T02:48:33;15.03;;;9.83;;
16998;SDS011;10211;49.476;11.010;2023-01-30T02:51:05;20.30;;;9.77;;
16998;SDS011;10211;49.476;11.010;2023-01-30T02:53:36;13.33;;;9.53;;
16998;SDS011;10211;49.476;11.010;2023-01-30T02:56:04;11.47;;;8.57;;
16998;SDS011;10211;49.476;11.010;2023-01-30T02:58:33;13.53;;;9.03;;
16998;SDS011;10211;49.476;11.010;2023-01-30T03:01:14;14.50;;;9.43;;
16998;SDS011;10211;49.476;11.010;2023-01-30T03:07:11;13.20;;;8.87;;
16998;SDS011;10211;49.476;11.010;2023-01-30T03:09:47;11.67;;;7.53;;
16998;SDS011;10211;49.476;11.010;2023-01-30T03:12:24;13.03;;;8.53;;
16998;SDS011;10211;49.476;11.010;2023-01-30T03:14:59;13.57;;;8.30;;
16998;SDS011;10211;49.476;11.010;2023-01-30T03:17:30;15.03;;;9.17;;
16998;SDS011;10211;49.476;11.010;2023-01-30T03:20:00;13.83;;;9.00;;
16998;SDS011;10211;49.476;11.010;2023-01-30T03:22:27;13.77;;;8.83;;
16998;SDS011;10211;49.476;11.010;2023-01-30T03:24:54;16.93;;;8.93;;
16998;SDS011;10211;49.476;11.010;2023-01-30T03:27:21;14.60;;;8.43;;
16998;SDS011;10211;49.476;11.010;2023-01-30T03:29:48;13.27;;;8.63;;
16998;SDS011;10211;49.476;11.010;2023-01-30T03:32:15;12.93;;;8.90;;
16998;SDS011;10211;49.476;11.010;2023-01-30T03:34:41;11.83;;;8.27;;
16998;SDS011;10211;49.476;11.010;2023-01-30T03:37:09;14.90;;;8.97;;
16998;SDS011;10211;49.476;11.010;2023-01-30T03:39:36;12.00;;;8.27;;
16998;SDS011;10211;49.476;11.010;2023-01-30T03:42:03;15.00;;;8.20;;
16998;SDS011;10211;49.476;11.010;2023-01-30T03:44:30;15.47;;;8.60;;
16998;SDS011;10211;49.476;11.010;2023-01-30T03:46:57;12.90;;;8.80;;
16998;SDS011;10211;49.476;11.010;2023-01-30T03:49:24;12.97;;;8.47;;
16998;SDS011;10211;49.476;11.010;2023-01-30T03:51:50;14.20;;;7.87;;
16998;SDS011;10211;49.476;11.010;2023-01-30T03:54:19;16.00;;;7.90;;
16998;SDS011;10211;49.476;11.010;2023-01-30T03:56:46;15.73;;;8.93;;
16998;SDS011;10211;49.476;11.010;2023-01-30T03:59:12;11.80;;;8.03;;
16998;SDS011;10211;49.476;11.010;2023-01-30T04:01:39;12.63;;;8.30;;
16998;SDS011;10211;49.476;11.010;2023-01-30T04:04:06;13.83;;;8.37;;
16998;SDS011;10211;49.476;11.010;2023-01-30T04:06:33;14.20;;;9.20;;
16998;SDS011;10211;49.476;11.010;2023-01-30T04:08:59;14.60;;;8.47;;
16998;SDS011;10211;49.476;11.010;2023-01-30T04:11:27;15.13;;;7.67;;
16998;SDS011;10211;49.476;11.010;2023-01-30T04:13:54;15.30;;;8.53;;
16998;SDS011;10211;49.476;11.010;2023-01-30T04:16:22;14.27;;;8.53;;
16998;SDS011;10211;49.476;11.010;2023-01-30T04:18:50;13.07;;;7.93;;
16998;SDS011;10211;49.476;11.010;2023-01-30T04:21:17;13.20;;;7.67;;
16998;SDS011;10211;49.476;11.010;2023-01-30T04:23:44;14.97;;;8.03;;
16998;SDS011;10211;49.476;11.010;2023-01-30T04:26:11;12.07;;;7.70;;
16998;SDS011;10211;49.476;11.010;2023-01-30T04:28:40;13.20;;;7.57;;
16998;SDS011;10211;49.476;11.010;2023-01-30T04:31:06;13.83;;;8.53;;
16998;SDS011;10211;49.476;11.010;2023-01-30T04:33:33;10.93;;;8.20;;
16998;SDS011;10211;49.476;11.010;2023-01-30T04:36:00;10.93;;;7.83;;
16998;SDS011;10211;49.476;11.010;2023-01-30T04:38:29;12.10;;;8.07;;
16998;SDS011;10211;49.476;11.010;2023-01-30T04:40:57;12.00;;;7.70;;
16998;SDS011;10211;49.476;11.010;2023-01-30T04:43:24;10.63;;;7.20;;
16998;SDS011;10211;49.476;11.010;2023-01-30T04:45:54;12.40;;;7.57;;
16998;SDS011;10211;49.476;11.010;2023-01-30T04:48:21;12.13;;;8.50;;
16998;SDS011;10211;49.476;11.010;2023-01-30T04:50:50;12.97;;;7.63;;
16998;SDS011;10211;49.476;11.010;2023-01-30T04:53:18;12.23;;;7.60;;
16998;SDS011;10211;49.476;11.010;2023-01-30T04:55:46;10.53;;;7.03;;
16998;SDS011;10211;49.476;11.010;2023-01-30T04:58:12;11.20;;;8.00;;
16998;SDS011;10211;49.476;11.010;2023-01-30T05:00:40;10.60;;;8.20;;
16998;SDS011;10211;49.476;11.010;2023-01-30T05:03:08;11.03;;;8.23;;
16998;SDS011;10211;49.476;11.010;2023-01-30T05:05:34;12.60;;;8.20;;
16998;SDS011;10211;49.476;11.010;2023-01-30T05:08:03;11.03;;;7.67;;
16998;SDS011;10211;49.476;11.010;2023-01-30T05:10:30;11.97;;;8.13;;
16998;SDS011;10211;49.476;11.010;2023-01-30T05:13:00;13.73;;;8.37;;
16998;SDS011;10211;49.476;11.010;2023-01-30T05:15:27;11.10;;;7.60;;
16998;SDS011;10211;49.476;11.010;2023-01-30T05:17:54;11.07;;;7.83;;
16998;SDS011;10211;49.476;11.010;2023-01-30T05:20:22;13.83;;;8.23;;
16998;SDS011;10211;49.476;11.010;2023-01-30T05:22:50;12.07;;;7.33;;
16998;SDS011;10211;49.476;11.010;2023-01-30T05:25:16;16.00;;;9.07;;
16998;SDS011;10211;49.476;11.010;2023-01-30T05:27:43;11.57;;;7.97;;
16998;SDS011;10211;49.476;11.010;2023-01-30T05:30:10;10.53;;;7.40;;
16998;SDS011;10211;49.476;11.010;2023-01-30T05:32:37;11.50;;;7.67;;
16998;SDS011;10211;49.476;11.010;2023-01-30T05:35:04;12.33;;;7.67;;
16998;SDS011;10211;49.476;11.010;2023-01-30T05:37:33;13.13;;;8.37;;
16998;SDS011;10211;49.476;11.010;2023-01-30T05:39:59;12.93;;;8.27;;
16998;SDS011;10211;49.476;11.010;2023-01-30T05:42:26;12.73;;;7.60;;
16998;SDS011;10211;49.476;11.010;2023-01-30T05:44:53;13.10;;;9.23;;
16998;SDS011;10211;49.476;11.010;2023-01-30T05:47:20;15.47;;;8.07;;
16998;SDS011;10211;49.476;11.010;2023-01-30T05:49:46;13.83;;;8.87;;
16998;SDS011;10211;49.476;11.010;2023-01-30T05:52:13;11.83;;;7.67;;
16998;SDS011;10211;49.476;11.010;2023-01-30T05:54:41;14.93;;;8.77;;
16998;SDS011;10211;49.476;11.010;2023-01-30T05:57:08;13.90;;;8.70;;
16998;SDS011;10211;49.476;11.010;2023-01-30T05:59:34;13.23;;;8.37;;
16998;SDS011;10211;49.476;11.010;2023-01-30T06:02:01;15.23;;;9.20;;
16998;SDS011;10211;49.476;11.010;2023-01-30T06:04:28;11.83;;;8.83;;
16998;SDS011;10211;49.476;11.010;2023-01-30T06:06:55;13.97;;;9.20;;
16998;SDS011;10211;49.476;11.010;2023-01-30T06:09:21;14.53;;;8.60;;
16998;SDS011;10211;49.476;11.010;2023-01-30T06:11:49;13.13;;;8.43;;
16998;SDS011;10211;49.476;11.010;2023-01-30T06:14:19;14.27;;;9.67;;
16998;SDS011;10211;49.476;11.010;2023-01-30T06:16:46;14.73;;;9.47;;
16998;SDS011;10211;49.476;11.010;2023-01-30T06:19:12;14.77;;;9.33;;
16998;SDS011;10211;49.476;11.010;2023-01-30T06:21:39;12.10;;;8.33;;
16998;SDS011;10211;49.476;11.010;2023-01-30T06:24:06;15.47;;;9.07;;
16998;SDS011;10211;49.476;11.010;2023-01-30T06:26:33;12.70;;;8.70;;
16998;SDS011;10211;49.476;11.010;2023-01-30T06:29:01;16.80;;;10.17;;
16998;SDS011;10211;49.476;11.010;2023-01-30T06:31:27;13.83;;;9.30;;
16998;SDS011;10211;49.476;11.010;2023-01-30T06:33:54;16.30;;;10.60;;
16998;SDS011;10211;49.476;11.010;2023-01-30T06:36:21;12.30;;;8.63;;
16998;SDS011;10211;49.476;11.010;2023-01-30T06:38:48;18.83;;;10.67;;
16998;SDS011;10211;49.476;11.010;2023-01-30T06:41:14;14.90;;;9.20;;
16998;SDS011;10211;49.476;11.010;2023-01-30T06:43:41;13.67;;;9.27;;
16998;SDS011;10211;49.476;11.010;2023-01-30T06:46:09;14.37;;;9.10;;
16998;SDS011;10211;49.476;11.010;2023-01-30T06:48:36;13.03;;;9.70;;
16998;SDS011;10211;49.476;11.010;2023-01-30T06:51:03;14.57;;;8.87;;
16998;SDS011;10211;49.476;11.010;2023-01-30T06:53:30;15.17;;;8.83;;
16998;SDS011;10211;49.476;11.010;2023-01-30T06:55:57;11.93;;;8.80;;
16998;SDS011;10211;49.476;11.010;2023-01-30T06:58:24;11.83;;;8.23;;
16998;SDS011;10211;49.476;11.010;2023-01-30T07:00:51;13.63;;;8.07;;
16998;SDS011;10211;49.476;11.010;2023-01-30T07:03:19;14.67;;;8.60;;
16998;SDS011;10211;49.476;11.010;2023-01-30T07:05:46;11.77;;;7.73;;
16998;SDS011;10211;49.476;11.010;2023-01-30T07:08:14;14.17;;;8.60;;
16998;SDS011;10211;49.476;11.010;2023-01-30T07:10:41;11.27;;;8.10;;
16998;SDS011;10211;49.476;11.010;2023-01-30T07:13:09;12.67;;;8.53;;
16998;SDS011;10211;49.476;11.010;2023-01-30T07:15:35;11.13;;;7.83;;
16998;SDS011;10211;49.476;11.010;2023-01-30T07:18:02;11.83;;;7.90;;
16998;SDS011;10211;49.476;11.010;2023-01-30T07:20:31;14.23;;;7.70;;
16998;SDS011;10211;49.476;11.010;2023-01-30T07:22:57;10.83;;;7.77;;
16998;SDS011;10211;49.476;11.010;2023-01-30T07:25:25;9.40;;;7.17;;
16998;SDS011;10211;49.476;11.010;2023-01-30T07:27:53;10.37;;;7.50;;
16998;SDS011;10211;49.476;11.010;2023-01-30T07:30:21;9.67;;;7.23;;
16998;SDS011;10211;49.476;11.010;2023-01-30T07:32:48;11.40;;;7.77;;
16998;SDS011;10211;49.476;11.010;2023-01-30T07:35:16;10.67;;;6.93;;
16998;SDS011;10211;49.476;11.010;2023-01-30T07:37:45;11.47;;;7.63;;
16998;SDS011;10211;49.476;11.010;2023-01-30T07:40:12;9.30;;;6.80;;
16998;SDS011;10211;49.476;11.010;2023-01-30T07:42:39;9.43;;;6.27;;
16998;SDS011;10211;49.476;11.010;2023-01-30T07:45:06;10.10;;;6.80;;
16998;SDS011;10211;49.476;11.010;2023-01-30T07:47:34;9.03;;;6.23;;
16998;SDS011;10211;49.476;11.010;2023-01-30T07:50:01;9.13;;;6.67;;
16998;SDS011;10211;49.476;11.010;2023-01-30T07:52:28;9.30;;;6.47;;
16998;SDS011;10211;49.476;11.010;2023-01-30T07:54:56;8.43;;;6.30;;
16998;SDS011;10211;49.476;11.010;2023-01-30T07:57:23;9.00;;;5.80;;
16998;SDS011;10211;49.476;11.010;2023-01-30T07:59:50;8.87;;;6.07;;
16998;SDS011;10211;49.476;11.010;2023-01-30T08:02:16;11.13;;;5.93;;
16998;SDS011;10211;49.476;11.010;2023-01-30T08:04:43;8.00;;;5.83;;
16998;SDS011;10211;49.476;11.010;2023-01-30T08:07:10;6.77;;;4.90;;
16998;SDS011;10211;49.476;11.010;2023-01-30T08:09:37;7.50;;;5.10;;
16998;SDS011;10211;49.476;11.010;2023-01-30T08:12:05;7.43;;;4.70;;
16998;SDS011;10211;49.476;11.010;2023-01-30T08:14:32;7.43;;;5.13;;
16998;SDS011;10211;49.476;11.010;2023-01-30T08:16:58;6.97;;;4.93;;
16998;SDS011;10211;49.476;11.010;2023-01-30T08:19:25;6.90;;;4.90;;
16998;SDS011;10211;49.476;11.010;2023-01-30T08:21:52;6.90;;;5.00;;
16998;SDS011;10211;49.476;11.010;2023-01-30T08:24:18;6.53;;;4.33;;
16998;SDS011;10211;49.476;11.010;2023-01-30T08:26:46;6.47;;;4.53;;
16998;SDS011;10211;49.476;11.010;2023-01-30T08:29:14;6.97;;;4.73;;
16998;SDS011;10211;49.476;11.010;2023-01-30T08:31:41;6.50;;;4.47;;
16998;SDS011;10211;49.476;11.010;2023-01-30T08:34:08;4.93;;;4.33;;
16998;SDS011;10211;49.476;11.010;2023-01-30T08:36:35;6.63;;;4.60;;
16998;SDS011;10211;49.476;11.010;2023-01-30T08:39:02;6.33;;;4.70;;
16998;SDS011;10211;49.476;11.010;2023-01-30T08:41:30;8.10;;;4.50;;
16998;SDS011;10211;49.476;11.010;2023-01-30T08:43:56;5.23;;;4.03;;
16998;SDS011;10211;49.476;11.010;2023-01-30T08:46:25;6.07;;;4.07;;
16998;SDS011;10211;49.476;11.010;2023-01-30T08:48:51;8.23;;;4.53;;
16998;SDS011;10211;49.476;11.010;2023-01-30T08:51:18;6.07;;;4.47;;
16998;SDS011;10211;49.476;11.010;2023-01-30T08:53:45;6.17;;;4.67;;
16998;SDS011;10211;49.476;11.010;2023-01-30T08:56:11;7.53;;;5.27;;
16998;SDS011;10211;49.476;11.010;2023-01-30T08:58:39;5.17;;;4.40;;
16998;SDS011;10211;49.476;11.010;2023-01-30T09:01:07;6.97;;;4.73;;
16998;SDS011;10211;49.476;11.010;2023-01-30T09:03:36;7.13;;;4.60;;
16998;SDS011;10211;49.476;11.010;2023-01-30T09:06:02;7.73;;;5.67;;
16998;SDS011;10211;49.476;11.010;2023-01-30T09:08:30;7.30;;;5.00;;
16998;SDS011;10211;49.476;11.010;2023-01-30T09:10:57;10.30;;;5.57;;
16998;SDS011;10211;49.476;11.010;2023-01-30T09:13:24;7.63;;;5.10;;
16998;SDS011;10211;49.476;11.010;2023-01-30T09:15:51;8.53;;;5.70;;
16998;SDS011;10211;49.476;11.010;2023-01-30T09:18:18;7.53;;;5.90;;
16998;SDS011;10211;49.476;11.010;2023-01-30T09:20:46;10.47;;;5.80;;
16998;SDS011;10211;49.476;11.010;2023-01-30T09:23:12;7.93;;;5.47;;
16998;SDS011;10211;49.476;11.010;2023-01-30T09:25:39;8.40;;;5.37;;
16998;SDS011;10211;49.476;11.010;2023-01-30T09:28:06;8.93;;;5.93;;
16998;SDS011;10211;49.476;11.010;2023-01-30T09:30:33;8.30;;;6.20;;
16998;SDS011;10211;49.476;11.010;2023-01-30T09:33:00;12.33;;;7.10;;
16998;SDS011;10211;49.476;11.010;2023-01-30T09:35:27;8.10;;;5.77;;
16998;SDS011;10211;49.476;11.010;2023-01-30T09:37:55;7.40;;;5.47;;
16998;SDS011;10211;49.476;11.010;2023-01-30T09:40:24;7.50;;;6.00;;
16998;SDS011;10211;49.476;11.010;2023-01-30T09:43:05;10.37;;;6.70;;
16998;SDS011;10211;49.476;11.010;2023-01-30T09:45:46;8.20;;;5.83;;
16998;SDS011;10211;49.476;11.010;2023-01-30T09:48:25;9.33;;;5.43;;
16998;SDS011;10211;49.476;11.010;2023-01-30T09:51:10;8.40;;;6.30;;
16998;SDS011;10211;49.476;11.010;2023-01-30T09:53:56;7.17;;;5.50;;
16998;SDS011;10211;49.476;11.010;2023-01-30T09:56:42;6.93;;;5.00;;
16998;SDS011;10211;49.476;11.010;2023-01-30T09:59:09;7.57;;;5.00;;
16998;SDS011;10211;49.476;11.010;2023-01-30T10:01:47;10.97;;;6.33;;
16998;SDS011;10211;49.476;11.010;2023-01-30T10:04:22;8.27;;;6.10;;
16998;SDS011;10211;49.476;11.010;2023-01-30T10:06:55;11.30;;;7.20;;
16998;SDS011;10211;49.476;11.010;2023-01-30T10:09:35;7.70;;;5.60;;
16998;SDS011;10211;49.476;11.010;2023-01-30T10:12:15;7.43;;;4.93;;
16998;SDS011;10211;49.476;11.010;2023-01-30T10:15:01;8.47;;;5.50;;
16998;SDS011;10211;49.476;11.010;2023-01-30T10:17:47;7.57;;;5.33;;
16998;SDS011;10211;49.476;11.010;2023-01-30T10:20:36;8.27;;;5.40;;
16998;SDS011;10211;49.476;11.010;2023-01-30T10:23:16;8.80;;;5.60;;
16998;SDS011;10211;49.476;11.010;2023-01-30T10:26:03;6.93;;;4.50;;
16998;SDS011;10211;49.476;11.010;2023-01-30T10:28:33;7.63;;;5.43;;
16998;SDS011;10211;49.476;11.010;2023-01-30T10:31:05;6.80;;;4.87;;
16998;SDS011;10211;49.476;11.010;2023-01-30T10:33:37;5.20;;;4.47;;
16998;SDS011;10211;49.476;11.010;2023-01-30T10:36:09;5.97;;;4.07;;
16998;SDS011;10211;49.476;11.010;2023-01-30T10:38:40;4.97;;;3.90;;
16998;SDS011;10211;49.476;11.010;2023-01-30T10:41:13;4.87;;;3.90;;
16998;SDS011;10211;49.476;11.010;2023-01-30T10:43:49;6.53;;;4.10;;
16998;SDS011;10211;49.476;11.010;2023-01-30T10:46:25;6.93;;;4.50;;
16998;SDS011;10211;49.476;11.010;2023-01-30T10:49:03;7.10;;;4.17;;
16998;SDS011;10211;49.476;11.010;2023-01-30T10:51:39;5.90;;;4.23;;
16998;SDS011;10211;49.476;11.010;2023-01-30T10:54:12;5.83;;;4.27;;
16998;SDS011;10211;49.476;11.010;2023-01-30T10:56:48;4.80;;;3.83;;
16998;SDS011;10211;49.476;11.010;2023-01-30T10:59:23;7.67;;;3.93;;
16998;SDS011;10211;49.476;11.010;2023-01-30T11:01:59;6.53;;;4.07;;
16998;SDS011;10211;49.476;11.010;2023-01-30T11:04:34;8.50;;;3.77;;
16998;SDS011;10211;49.476;11.010;2023-01-30T11:07:05;4.47;;;3.80;;
16998;SDS011;10211;49.476;11.010;2023-01-30T11:09:36;6.07;;;3.87;;
16998;SDS011;10211;49.476;11.010;2023-01-30T11:12:06;6.33;;;4.10;;
16998;SDS011;10211;49.476;11.010;2023-01-30T11:17:15;5.83;;;3.93;;
16998;SDS011;10211;49.476;11.010;2023-01-30T11:19:43;4.80;;;3.27;;
16998;SDS011;10211;49.476;11.010;2023-01-30T11:22:12;4.03;;;3.47;;
16998;SDS011;10211;49.476;11.010;2023-01-30T11:24:40;5.33;;;3.43;;
16998;SDS011;10211;49.476;11.010;2023-01-30T11:27:10;5.10;;;3.57;;
16998;SDS011;10211;49.476;11.010;2023-01-30T11:29:42;5.33;;;3.60;;
16998;SDS011;10211;49.476;11.010;2023-01-30T11:32:11;5.33;;;4.10;;
16998;SDS011;10211;49.476;11.010;2023-01-30T11:34:40;6.33;;;4.37;;
16998;SDS011;10211;49.476;11.010;2023-01-30T11:37:12;5.23;;;4.03;;
16998;SDS011;10211;49.476;11.010;2023-01-30T11:39:47;5.83;;;4.40;;
16998;SDS011;10211;49.476;11.010;2023-01-30T11:42:17;4.77;;;3.90;;
16998;SDS011;10211;49.476;11.010;2023-01-30T11:44:45;4.83;;;3.87;;
16998;SDS011;10211;49.476;11.010;2023-01-30T11:47:20;5.57;;;3.80;;
16998;SDS011;10211;49.476;11.010;2023-01-30T11:49:49;5.70;;;4.10;;
16998;SDS011;10211;49.476;11.010;2023-01-30T11:52:23;4.43;;;4.03;;
16998;SDS011;10211;49.476;11.010;2023-01-30T11:54:51;7.07;;;4.03;;
16998;SDS011;10211;49.476;11.010;2023-01-30T11:57:26;5.57;;;3.40;;
16998;SDS011;10211;49.476;11.010;2023-01-30T11:59:53;5.33;;;3.30;;
16998;SDS011;10211;49.476;11.010;2023-01-30T12:02:23;8.00;;;3.67;;
16998;SDS011;10211;49.476;11.010;2023-01-30T12:04:54;4.03;;;3.43;;
16998;SDS011;10211;49.476;11.010;2023-01-30T12:07:23;5.27;;;3.53;;
16998;SDS011;10211;49.476;11.010;2023-01-30T12:09:51;5.70;;;3.43;;
16998;SDS011;10211;49.476;11.010;2023-01-30T12:12:26;6.43;;;4.03;;
16998;SDS011;10211;49.476;11.010;2023-01-30T12:14:58;4.40;;;2.90;;
16998;SDS011;10211;49.476;11.010;2023-01-30T12:17:41;6.00;;;3.07;;
16998;SDS011;10211;49.476;11.010;2023-01-30T12:20:13;4.47;;;3.07;;
16998;SDS011;10211;49.476;11.010;2023-01-30T12:22:50;5.50;;;3.43;;
16998;SDS011;10211;49.476;11.010;2023-01-30T12:25:28;3.97;;;2.83;;
16998;SDS011;10211;49.476;11.010;2023-01-30T12:28:02;3.83;;;3.20;;
16998;SDS011;10211;49.476;11.010;2023-01-30T12:30:37;3.20;;;2.90;;
16998;SDS011;10211;49.476;11.010;2023-01-30T12:33:10;4.17;;;3.50;;
16998;SDS011;10211;49.476;11.010;2023-01-30T12:35:43;5.27;;;3.13;;
16998;SDS011;10211;49.476;11.010;2023-01-30T12:38:23;4.13;;;2.63;;
16998;SDS011;10211;49.476;11.010;2023-01-30T12:41:02;3.73;;;2.50;;
16998;SDS011;10211;49.476;11.010;2023-01-30T12:43:49;5.40;;;3.27;;
16998;SDS011;10211;49.476;11.010;2023-01-30T12:46:33;3.10;;;2.60;;
16998;SDS011;10211;49.476;11.010;2023-01-30T12:49:14;4.00;;;3.07;;
16998;SDS011;10211;49.476;11.010;2023-01-30T12:51:58;3.77;;;3.23;;
16998;SDS011;10211;49.476;11.010;2023-01-30T12:54:40;5.03;;;3.00;;
16998;SDS011;10211;49.476;11.010;2023-01-30T12:57:17;4.70;;;2.93;;
16998;SDS011;10211;49.476;11.010;2023-01-30T12:59:55;3.53;;;3.03;;
16998;SDS011;10211;49.476;11.010;2023-01-30T13:02:35;3.53;;;2.93;;
16998;SDS011;10211;49.476;11.010;2023-01-30T13:05:19;3.97;;;3.07;;
16998;SDS011;10211;49.476;11.010;2023-01-30T13:07:56;3.80;;;3.10;;
16998;SDS011;10211;49.476;11.010;2023-01-30T13:10:36;5.07;;;2.87;;
16998;SDS011;10211;49.476;11.010;2023-01-30T13:13:10;3.53;;;3.20;;
16998;SDS011;10211;49.476;11.010;2023-01-30T13:15:45;4.00;;;3.00;;
16998;SDS011;10211;49.476;11.010;2023-01-30T13:18:19;3.67;;;2.70;;
16998;SDS011;10211;49.476;11.010;2023-01-30T13:20:53;3.17;;;2.87;;
16998;SDS011;10211;49.476;11.010;2023-01-30T13:23:29;4.40;;;3.40;;
16998;SDS011;10211;49.476;11.010;2023-01-30T13:26:04;4.80;;;3.17;;
16998;SDS011;10211;49.476;11.010;2023-01-30T13:28:35;4.60;;;3.20;;
16998;SDS011;10211;49.476;11.010;2023-01-30T13:31:07;4.17;;;3.30;;
16998;SDS011;10211;49.476;11.010;2023-01-30T13:33:37;3.40;;;2.87;;
16998;SDS011;10211;49.476;11.010;2023-01-30T13:36:09;5.23;;;3.00;;
16998;SDS011;10211;49.476;11.010;2023-01-30T13:38:40;7.40;;;3.13;;
16998;SDS011;10211;49.476;11.010;2023-01-30T13:41:14;3.00;;;2.70;;
16998;SDS011;10211;49.476;11.010;2023-01-30T13:43:44;3.97;;;2.67;;
16998;SDS011;10211;49.476;11.010;2023-01-30T13:46:18;4.17;;;2.93;;
16998;SDS011;10211;49.476;11.010;2023-01-30T13:48:54;3.17;;;2.53;;
16998;SDS011;10211;49.476;11.010;2023-01-30T13:51:40;4.23;;;3.30;;
16998;SDS011;10211;49.476;11.010;2023-01-30T13:54:15;3.37;;;3.00;;
16998;SDS011;10211;49.476;11.010;2023-01-30T13:56:53;3.77;;;2.60;;
16998;SDS011;10211;49.476;11.010;2023-01-30T13:59:27;4.07;;;2.90;;
16998;SDS011;10211;49.476;11.010;2023-01-30T14:02:16;4.33;;;3.07;;
16998;SDS011;10211;49.476;11.010;2023-01-30T14:04:45;3.17;;;2.80;;
16998;SDS011;10211;49.476;11.010;2023-01-30T14:07:14;5.13;;;2.47;;
16998;SDS011;10211;49.476;11.010;2023-01-30T14:09:48;3.53;;;2.80;;
16998;SDS011;10211;49.476;11.010;2023-01-30T14:12:27;3.33;;;3.00;;
16998;SDS011;10211;49.476;11.010;2023-01-30T14:15:02;4.63;;;3.50;;
16998;SDS011;10211;49.476;11.010;2023-01-30T14:17:32;5.20;;;2.70;;
16998;SDS011;10211;49.476;11.010;2023-01-30T14:20:00;5.07;;;3.20;;
16998;SDS011;10211;49.476;11.010;2023-01-30T14:22:34;3.53;;;3.03;;
16998;SDS011;10211;49.476;11.010;2023-01-30T14:37:25;3.67;;;3.20;;
16998;SDS011;10211;49.476;11.010;2023-01-30T14:46:05;3.77;;;2.90;;
16998;SDS011;10211;49.476;11.010;2023-01-30T14:48:39;4.33;;;2.80;;
16998;SDS011;10211;49.476;11.010;2023-01-30T14:51:10;5.93;;;3.27;;
16998;SDS011;10211;49.476;11.010;2023-01-30T14:53:47;6.10;;;3.20;;
16998;SDS011;10211;49.476;11.010;2023-01-30T14:56:16;4.07;;;3.20;;
16998;SDS011;10211;49.476;11.010;2023-01-30T14:58:51;3.80;;;2.73;;
16998;SDS011;10211;49.476;11.010;2023-01-30T15:01:24;4.03;;;3.63;;
16998;SDS011;10211;49.476;11.010;2023-01-30T15:03:51;4.20;;;3.27;;
16998;SDS011;10211;49.476;11.010;2023-01-30T15:06:20;3.83;;;2.80;;
16998;SDS011;10211;49.476;11.010;2023-01-30T15:08:50;7.33;;;3.40;;
16998;SDS011;10211;49.476;11.010;2023-01-30T15:11:19;5.53;;;3.77;;
16998;SDS011;10211;49.476;11.010;2023-01-30T15:13:52;4.20;;;2.93;;